Airport View

Enter AWOS ICAO identifier for current METAR.

ex. KFNL

KSRE 120555Z AUTO 27009G15KT 10SM CLR 05/M03 A3033 RMK AO2

12 Dec 2019 06:14

Frequency: 118.625

Phone: 405-382-0111

Other Area AWOS: KSNL - KCQB - KADH - KTIK

TAF KTIK 120200Z 1202/1308 17009KT 9999 SKC 510021 QNH3013INS BECMG 1209/1210 18012KT 9999 SKC WS020/20050KT QNH3013INS BECMG 1216/1217 20012G18KT 9999 SCT020 QNH3008INS BECMG 1221/1222 20012KT 9999 BKN030 QNH2999INS TX13/1219Z TN03/1209Z